Time;durP1;ratioP1;P1;durP2;ratioP2;P2;SDS_P1;SDS_P2;PMS_P1;PMS_P2;Temp;Humidity;BMP_temperature;BMP_pressure;BME280_temperature;BME280_humidity;BME280_pressure;Samples;Min_cycle;Max_cycle;Signal;HPM_P1;HPM_P2
2022/09/11 00:02:02;;;;;;;;;;;;;;;12.43;100.00;101726.31;5333971;27;20308;-79
2022/09/11 00:04:34;;;;;;;;;;;;;;;12.42;100.00;101729.97;5324073;27;20019;-79
2022/09/11 00:07:05;;;;;;;;;;;;;;;12.42;100.00;101729.97;5322085;27;19916;-79
2022/09/11 00:09:36;;;;;;;;;;;;;;;12.44;100.00;101730.69;5324769;27;20019;-79
2022/09/11 00:12:08;;;;;;;;;;;;;;;12.43;100.00;101729.00;5324405;27;19920;-79
2022/09/11 00:14:40;;;;;;;;;;;;;;;12.41;100.00;101724.75;5329934;27;20295;-79
2022/09/11 00:17:11;;;;;;;;;;;;;;;12.41;100.00;101727.41;5327281;27;19916;-79
2022/09/11 00:19:43;;;;;;;;;;;;;;;12.39;100.00;101727.56;5331894;27;20398;-79
2022/09/11 00:22:14;;;;;;;;;;;;;;;12.35;100.00;101720.78;5326462;27;20464;-79
2022/09/11 00:24:46;;;;;;;;;;;;;;;12.31;100.00;101730.06;5355817;27;19931;-79
2022/09/11 00:27:17;;;;;;;;;;;;;;;12.28;100.00;101731.16;5323554;27;20474;-79
2022/09/11 00:29:48;;;;;;;;;;;;;;;12.25;100.00;101730.56;5321577;27;20406;-79
2022/09/11 00:32:20;;;;;;;;;;;;;;;12.24;100.00;101737.75;5324088;27;20435;-79
2022/09/11 00:34:51;;;;;;;;;;;;;;;12.23;100.00;101744.06;5321719;27;19993;-79
2022/09/11 00:37:23;;;;;;;;;;;;;;;12.21;100.00;101738.00;5323689;27;19965;-79
2022/09/11 00:39:54;;;;;;;;;;;;;;;12.15;100.00;101740.34;5323257;27;19924;-79
2022/09/11 00:42:25;;;;;;;;;;;;;;;12.13;100.00;101731.63;5320292;27;19928;-79
2022/09/11 00:44:59;;;;;;;;;;;;;;;12.11;100.00;101737.09;5323737;27;19920;-79
2022/09/11 00:47:31;;;;;;;;;;;;;;;11.93;100.00;101738.69;5321156;27;19920;-79
2022/09/11 00:50:08;;;;;;;;;;;;;;;11.99;100.00;101743.50;5322511;27;19920;-78
2022/09/11 00:52:46;;;;;;;;;;;;;;;12.18;100.00;101750.81;5319920;27;20402;-78
2022/09/11 00:55:20;;;;;;;;;;;;;;;12.19;100.00;101755.19;5320133;27;19966;-78
2022/09/11 00:57:57;;;;;;;;;;;;;;;12.15;100.00;101754.59;5323095;27;19927;-78
2022/09/11 01:00:28;;;;;;;;;;;;;;;12.15;100.00;101748.38;5321673;28;20335;-78
2022/09/11 01:02:59;;;;;;;;;;;;;;;12.11;100.00;101753.16;5319875;27;19920;-78
2022/09/11 01:05:33;;;;;;;;;;;;;;;12.07;100.00;101751.72;5356337;27;19916;-77
2022/09/11 01:08:05;;;;;;;;;;;;;;;12.06;100.00;101758.03;5323652;27;19920;-78
2022/09/11 01:10:36;;;;;;;;;;;;;;;12.00;100.00;101761.25;5354062;27;19977;-78
2022/09/11 01:13:10;;;;;;;;;;;;;;;11.98;100.00;101760.53;5321886;27;19949;-78
2022/09/11 01:15:53;;;;;;;;;;;;;;;11.96;100.00;101766.00;5323067;27;20057;-78
2022/09/11 01:18:31;;;;;;;;;;;;;;;11.99;100.00;101764.88;5323370;27;19931;-78
2022/09/11 01:21:02;;;;;;;;;;;;;;;11.94;100.00;101756.41;5325178;27;19961;-78
2022/09/11 01:23:54;;;;;;;;;;;;;;;11.92;100.00;101764.53;5317826;27;19920;-78
2022/09/11 01:26:52;;;;;;;;;;;;;;;11.89;100.00;101754.09;5323955;27;19920;-78
2022/09/11 01:29:26;;;;;;;;;;;;;;;11.89;100.00;101762.13;5323627;27;19923;-78
2022/09/11 01:32:17;;;;;;;;;;;;;;;11.89;100.00;101754.94;5325945;27;20318;-77
2022/09/11 01:34:59;;;;;;;;;;;;;;;11.93;100.00;101754.72;5331962;27;19916;-78
2022/09/11 01:37:37;;;;;;;;;;;;;;;11.91;100.00;101761.03;5320912;27;19912;-79
2022/09/11 01:40:15;;;;;;;;;;;;;;;11.88;100.00;101758.56;5322249;27;19920;-78
2022/09/11 01:42:50;;;;;;;;;;;;;;;11.91;100.00;101765.53;5320787;27;19935;-78
2022/09/11 01:45:24;;;;;;;;;;;;;;;11.88;100.00;101763.91;5321019;27;19916;-78
2022/09/11 01:47:57;;;;;;;;;;;;;;;11.84;100.00;101765.16;5320635;27;19931;-78
2022/09/11 01:50:30;;;;;;;;;;;;;;;11.80;100.00;101766.41;5322817;28;19920;-79
2022/09/11 01:53:03;;;;;;;;;;;;;;;11.83;100.00;101775.97;5319245;27;20003;-78
2022/09/11 01:55:40;;;;;;;;;;;;;;;11.82;100.00;101772.47;5320649;27;19923;-78
2022/09/11 01:58:24;;;;;;;;;;;;;;;11.81;100.00;101773.44;5318119;27;19973;-78
2022/09/11 02:01:16;;;;;;;;;;;;;;;11.83;100.00;101773.31;5321987;28;19927;-78
2022/09/11 02:03:51;;;;;;;;;;;;;;;11.80;100.00;101765.53;5319300;27;19923;-79
2022/09/11 02:06:29;;;;;;;;;;;;;;;11.81;100.00;101769.91;5322285;27;20324;-78
2022/09/11 02:09:04;;;;;;;;;;;;;;;11.80;100.00;101768.22;5320094;27;20439;-78
2022/09/11 02:11:39;;;;;;;;;;;;;;;11.80;100.00;101768.22;5319489;27;19931;-78
2022/09/11 02:14:15;;;;;;;;;;;;;;;11.82;100.00;101774.31;5321945;27;19969;-78
2022/09/11 02:17:15;;;;;;;;;;;;;;;11.81;100.00;101777.94;5320038;27;19920;-78
2022/09/11 02:19:48;;;;;;;;;;;;;;;11.83;100.00;101782.19;5280307;28;19977;-78
2022/09/11 02:22:19;;;;;;;;;;;;;;;11.81;100.00;101783.28;5351177;27;19920;-78
2022/09/11 02:24:50;;;;;;;;;;;;;;;11.77;100.00;101787.19;5319877;28;19926;-78
2022/09/11 02:27:23;;;;;;;;;;;;;;;11.76;100.00;101783.66;5322025;27;19962;-78
2022/09/11 02:29:55;;;;;;;;;;;;;;;11.68;100.00;101778.97;5319140;27;19927;-78
2022/09/11 02:32:26;;;;;;;;;;;;;;;11.58;100.00;101780.69;5319997;27;19920;-78
2022/09/11 02:34:58;;;;;;;;;;;;;;;11.51;100.00;101780.34;5321497;27;19967;-79
2022/09/11 02:37:33;;;;;;;;;;;;;;;11.54;100.00;101773.91;5321338;27;19920;-78
2022/09/11 02:40:05;;;;;;;;;;;;;;;11.55;100.00;101778.25;5321052;27;19924;-78
2022/09/11 02:42:39;;;;;;;;;;;;;;;11.56;100.00;101781.81;5319790;27;21282;-79
2022/09/11 02:45:16;;;;;;;;;;;;;;;11.56;100.00;101779.13;5321491;28;19924;-78
2022/09/11 02:48:06;;;;;;;;;;;;;;;11.60;100.00;101789.41;5323658;27;20011;-78
2022/09/11 02:50:57;;;;;;;;;;;;;;;11.65;100.00;101787.22;5336139;27;19923;-78
2022/09/11 02:53:47;;;;;;;;;;;;;;;11.70;100.00;101786.84;5321446;27;20401;-79
2022/09/11 02:56:33;;;;;;;;;;;;;;;11.78;100.00;101794.22;5319670;27;19963;-78
2022/09/11 02:59:25;;;;;;;;;;;;;;;11.85;100.00;101790.94;5333940;27;19924;-78
2022/09/11 03:02:00;;;;;;;;;;;;;;;11.90;100.00;101791.44;5321716;27;19973;-78
2022/09/11 03:04:33;;;;;;;;;;;;;;;11.94;100.00;101788.47;5322028;28;19923;-79
2022/09/11 03:07:05;;;;;;;;;;;;;;;11.91;100.00;101802.97;5319048;27;19920;-79
2022/09/11 03:09:36;;;;;;;;;;;;;;;11.88;100.00;101806.69;5320228;27;19920;-79
2022/09/11 03:12:11;;;;;;;;;;;;;;;11.88;100.00;101804.03;5320447;27;20273;-79
2022/09/11 03:14:42;;;;;;;;;;;;;;;11.87;100.00;101809.53;5320076;27;20328;-79
2022/09/11 03:17:14;;;;;;;;;;;;;;;11.84;100.00;101805.25;5318964;27;20269;-79
2022/09/11 03:19:45;;;;;;;;;;;;;;;11.86;100.00;101799.78;5320937;27;19924;-78
2022/09/11 03:22:16;;;;;;;;;;;;;;;11.82;100.00;101804.53;5322062;27;19928;-78
2022/09/11 03:24:47;;;;;;;;;;;;;;;11.80;100.00;101800.28;5319232;27;19977;-78
2022/09/11 03:27:20;;;;;;;;;;;;;;;11.79;100.00;101803.94;5321695;27;19928;-79
2022/09/11 03:29:51;;;;;;;;;;;;;;;11.77;100.00;101804.06;5322133;28;19927;-79
2022/09/11 03:32:22;;;;;;;;;;;;;;;11.79;100.00;101804.78;5323690;27;19920;-79
2022/09/11 03:34:54;;;;;;;;;;;;;;;11.88;100.00;101803.19;5320379;27;19926;-79
2022/09/11 03:37:25;;;;;;;;;;;;;;;11.87;100.00;101799.66;5320250;27;19927;-79
2022/09/11 03:39:57;;;;;;;;;;;;;;;11.93;100.00;101802.84;5319995;27;20338;-79
2022/09/11 03:42:28;;;;;;;;;;;;;;;11.95;100.00;101809.75;5319149;27;20292;-79
2022/09/11 03:44:59;;;;;;;;;;;;;;;11.91;100.00;101810.97;5319889;27;20334;-79
2022/09/11 03:47:30;;;;;;;;;;;;;;;11.87;100.00;101809.53;5321151;27;19916;-79
2022/09/11 03:50:02;;;;;;;;;;;;;;;11.86;100.00;101811.31;5320027;27;19920;-79
2022/09/11 03:52:34;;;;;;;;;;;;;;;11.88;100.00;101813.88;5320000;27;19970;-79
2022/09/11 03:55:06;;;;;;;;;;;;;;;11.85;100.00;101804.31;5320555;28;20300;-79
2022/09/11 03:57:41;;;;;;;;;;;;;;;11.83;100.00;101811.59;5320872;27;19916;-79
2022/09/11 04:00:12;;;;;;;;;;;;;;;11.84;100.00;101809.75;5319666;27;19919;-79
2022/09/11 04:02:43;;;;;;;;;;;;;;;11.82;100.00;101806.38;5318043;27;20474;-79
2022/09/11 04:05:15;;;;;;;;;;;;;;;11.83;100.00;101814.28;5322561;27;19920;-79
2022/09/11 04:07:47;;;;;;;;;;;;;;;11.86;100.00;101805.13;5324153;27;19959;-79
2022/09/11 04:10:19;;;;;;;;;;;;;;;11.85;100.00;101800.75;5325583;27;20300;-79
2022/09/11 04:12:50;;;;;;;;;;;;;;;11.83;100.00;101802.72;5323202;27;19931;-79
2022/09/11 04:15:21;;;;;;;;;;;;;;;11.82;100.00;101806.38;5315909;27;19916;-79
2022/09/11 04:17:52;;;;;;;;;;;;;;;11.82;100.00;101807.22;5321390;27;19927;-79
2022/09/11 04:20:24;;;;;;;;;;;;;;;11.82;100.00;101807.22;5316226;27;19920;-79
2022/09/11 04:22:55;;;;;;;;;;;;;;;11.89;100.00;101812.91;5326929;27;19927;-79
2022/09/11 04:25:26;;;;;;;;;;;;;;;11.89;100.00;101813.75;5323342;27;19935;-79
2022/09/11 04:27:58;;;;;;;;;;;;;;;11.85;100.00;101811.44;5321491;27;19963;-78
2022/09/11 04:30:29;;;;;;;;;;;;;;;11.86;100.00;101805.97;5317560;28;19920;-78
2022/09/11 04:33:01;;;;;;;;;;;;;;;11.82;100.00;101803.72;5322797;27;20031;-79
2022/09/11 04:35:35;;;;;;;;;;;;;;;11.75;100.00;101806.03;5316045;27;19967;-79
2022/09/11 04:38:06;;;;;;;;;;;;;;;11.69;100.00;101807.38;5318495;27;19924;-79
2022/09/11 04:40:38;;;;;;;;;;;;;;;11.70;100.00;101808.22;5350903;27;19921;-79
2022/09/11 04:43:10;;;;;;;;;;;;;;;11.75;100.00;101808.69;5322247;27;19924;-79
2022/09/11 04:45:42;;;;;;;;;;;;;;;11.75;100.00;101816.72;5320374;27;19916;-79
2022/09/11 04:48:13;;;;;;;;;;;;;;;11.77;100.00;101816.59;5324345;27;20265;-79
2022/09/11 04:50:47;;;;;;;;;;;;;;;11.70;100.00;101818.91;5320142;27;19920;-79
2022/09/11 04:53:18;;;;;;;;;;;;;;;11.68;100.00;101823.56;5354598;27;20608;-78
2022/09/11 04:55:49;;;;;;;;;;;;;;;11.66;100.00;101821.00;5320536;27;19967;-79
2022/09/11 04:58:21;;;;;;;;;;;;;;;11.65;100.00;101819.28;5322819;27;19920;-79
2022/09/11 05:00:52;;;;;;;;;;;;;;;11.66;100.00;101823.66;5322650;27;20300;-79
2022/09/11 05:03:23;;;;;;;;;;;;;;;11.70;100.00;101814.41;5323834;27;19916;-79
2022/09/11 05:05:55;;;;;;;;;;;;;;;11.73;100.00;101822.19;5318744;27;19969;-78
2022/09/11 05:08:26;;;;;;;;;;;;;;;11.75;100.00;101815.88;5324148;28;19919;-79
2022/09/11 05:10:58;;;;;;;;;;;;;;;11.73;100.00;101824.88;5320386;27;20346;-78
2022/09/11 05:13:30;;;;;;;;;;;;;;;11.66;100.00;101831.69;5324002;27;20308;-78
2022/09/11 05:16:02;;;;;;;;;;;;;;;11.67;100.00;101827.19;5316453;27;19916;-78
2022/09/11 05:18:34;;;;;;;;;;;;;;;11.69;100.00;101833.25;5318970;28;19927;-78
2022/09/11 05:21:07;;;;;;;;;;;;;;;11.63;100.00;101839.94;5350665;27;20312;-78
2022/09/11 05:23:38;;;;;;;;;;;;;;;11.51;100.00;101848.97;5323809;27;19920;-78
2022/09/11 05:26:13;;;;;;;;;;;;;;;11.46;100.00;101846.66;5322140;27;20379;-79
2022/09/11 05:28:44;;;;;;;;;;;;;;;11.47;100.00;101860.88;5320985;27;19942;-78
2022/09/11 05:31:17;;;;;;;;;;;;;;;11.45;100.00;101861.00;5316967;27;19923;-78
2022/09/11 05:33:48;;;;;;;;;;;;;;;11.37;100.00;101868.78;5319509;27;19927;-79
2022/09/11 05:36:19;;;;;;;;;;;;;;;11.29;100.00;101876.53;5319872;27;20334;-78
2022/09/11 05:38:51;;;;;;;;;;;;;;;11.30;100.00;101878.25;5322262;27;19924;-78
2022/09/11 05:41:23;;;;;;;;;;;;;;;11.41;100.00;101882.72;5319895;27;19923;-78
2022/09/11 05:43:54;;;;;;;;;;;;;;;11.43;100.00;101888.78;5319693;27;19932;-78
2022/09/11 05:46:25;;;;;;;;;;;;;;;11.48;100.00;101890.16;5319877;27;20378;-78
2022/09/11 05:48:58;;;;;;;;;;;;;;;11.55;100.00;101893.16;5323357;27;20080;-78
2022/09/11 05:51:29;;;;;;;;;;;;;;;11.61;100.00;101889.16;5319788;27;20308;-78
2022/09/11 05:54:00;;;;;;;;;;;;;;;11.67;100.00;101894.00;5321499;27;19931;-78
2022/09/11 05:56:32;;;;;;;;;;;;;;;11.77;100.00;101902.13;5317237;27;19923;-79
2022/09/11 05:59:10;;;;;;;;;;;;;;;11.83;100.00;101907.84;5320278;27;19935;-78
2022/09/11 06:01:42;;;;;;;;;;;;;;;11.88;100.00;101908.28;5321547;27;19955;-78
2022/09/11 06:04:13;;;;;;;;;;;;;;;11.84;100.00;101909.50;5319949;27;19966;-78
2022/09/11 06:06:46;;;;;;;;;;;;;;;11.79;100.00;101908.19;5315452;28;19923;-78
2022/09/11 06:09:18;;;;;;;;;;;;;;;11.86;100.00;101909.41;5321964;27;19924;-78
2022/09/11 06:11:49;;;;;;;;;;;;;;;11.91;100.00;101915.25;5318793;27;19920;-78
2022/09/11 06:14:20;;;;;;;;;;;;;;;12.01;100.00;101915.34;5318305;27;20312;-78
2022/09/11 06:16:55;;;;;;;;;;;;;;;12.11;100.00;101918.94;5320731;28;19920;-78
2022/09/11 06:19:26;;;;;;;;;;;;;;;12.21;100.00;101924.41;5316884;28;19924;-78
2022/09/11 06:21:57;;;;;;;;;;;;;;;12.24;100.00;101925.00;5319565;28;20277;-78
2022/09/11 06:24:29;;;;;;;;;;;;;;;12.33;100.00;101926.06;5319886;27;19920;-78
2022/09/11 06:27:00;;;;;;;;;;;;;;;12.39;100.00;101930.06;5316108;27;19924;-78
2022/09/11 06:29:31;;;;;;;;;;;;;;;12.47;100.00;101931.09;5320029;27;19923;-78
2022/09/11 06:32:03;;;;;;;;;;;;;;;12.65;100.00;101935.91;5319682;27;19919;-78
2022/09/11 06:34:34;;;;;;;;;;;;;;;12.81;100.00;101935.44;5320640;28;19927;-78
2022/09/11 06:37:05;;;;;;;;;;;;;;;12.84;100.00;101946.75;5316470;27;19931;-78
2022/09/11 06:39:37;;;;;;;;;;;;;;;12.94;100.00;101951.31;5320014;27;19920;-78
2022/09/11 06:42:09;;;;;;;;;;;;;;;13.09;100.00;101947.31;5317087;27;19923;-79
2022/09/11 06:44:40;;;;;;;;;;;;;;;13.17;100.00;101944.84;5318734;27;19931;-78
2022/09/11 06:47:12;;;;;;;;;;;;;;;13.29;100.00;101944.75;5320117;27;19916;-78
2022/09/11 06:49:43;;;;;;;;;;;;;;;13.45;100.00;101945.16;5321162;27;19927;-78
2022/09/11 06:52:14;;;;;;;;;;;;;;;13.47;100.00;101945.88;5318658;27;19939;-78
2022/09/11 06:54:46;;;;;;;;;;;;;;;13.51;100.00;101944.59;5321485;28;20427;-78
2022/09/11 06:57:18;;;;;;;;;;;;;;;13.63;100.00;101956.06;5319190;27;19931;-78
2022/09/11 06:59:50;;;;;;;;;;;;;;;13.73;100.00;101956.97;5320599;27;20449;-78
2022/09/11 07:02:21;;;;;;;;;;;;;;;13.84;100.00;101955.16;5321114;27;19932;-78
2022/09/11 07:04:53;;;;;;;;;;;;;;;13.83;100.00;101956.13;5320674;27;19924;-78
2022/09/11 07:07:24;;;;;;;;;;;;;;;13.91;100.00;101959.00;5320552;27;19926;-78
2022/09/11 07:09:56;;;;;;;;;;;;;;;13.91;100.00;101959.00;5316469;27;19977;-78
2022/09/11 07:12:27;;;;;;;;;;;;;;;14.09;100.00;101964.53;5329524;27;19920;-78
2022/09/11 07:14:58;;;;;;;;;;;;;;;14.25;100.00;101959.47;5318650;27;19916;-78
2022/09/11 07:17:29;;;;;;;;;;;;;;;14.46;100.00;101953.13;5341948;27;19978;-79
2022/09/11 07:20:03;;;;;;;;;;;;;;;14.55;100.00;101954.97;5320479;27;20707;-79
2022/09/11 07:22:34;;;;;;;;;;;;;;;14.61;100.00;101954.44;5331571;27;19923;-78
2022/09/11 07:25:06;;;;;;;;;;;;;;;14.59;100.00;101950.22;5319214;27;19925;-78
2022/09/11 07:27:37;;;;;;;;;;;;;;;14.63;100.00;101949.78;5349814;27;20279;-78
2022/09/11 07:30:09;;;;;;;;;;;;;;;14.78;100.00;101950.19;5321175;27;19924;-78
2022/09/11 07:32:40;;;;;;;;;;;;;;;14.96;100.00;101957.53;5317344;27;19923;-78
2022/09/11 07:35:20;;;;;;;;;;;;;;;15.10;100.00;101960.59;5317558;27;20407;-78
2022/09/11 07:37:51;;;;;;;;;;;;;;;15.25;100.00;101968.19;5322256;27;20342;-78
2022/09/11 07:40:23;;;;;;;;;;;;;;;15.46;100.00;101958.09;5322001;27;19916;-78
2022/09/11 07:42:54;;;;;;;;;;;;;;;15.71;100.00;101955.72;5326098;27;20094;-78
2022/09/11 07:45:26;;;;;;;;;;;;;;;16.00;100.00;101963.66;5322262;27;19920;-79
2022/09/11 07:47:59;;;;;;;;;;;;;;;16.30;100.00;101958.91;5323803;27;19916;-77
2022/09/11 07:50:31;;;;;;;;;;;;;;;16.26;100.00;101965.63;5320994;27;19920;-78
2022/09/11 07:53:02;;;;;;;;;;;;;;;16.36;100.00;101960.19;5325547;27;20368;-78
2022/09/11 07:55:33;;;;;;;;;;;;;;;16.64;100.00;101956.38;5327204;27;19911;-79
2022/09/11 07:58:05;;;;;;;;;;;;;;;17.00;100.00;101961.75;5331031;27;20026;-79
2022/09/11 08:00:36;;;;;;;;;;;;;;;17.15;100.00;101964.72;5362070;27;19912;-79
2022/09/11 08:03:07;;;;;;;;;;;;;;;17.25;100.00;101966.44;5328875;27;19923;-79
2022/09/11 08:05:39;;;;;;;;;;;;;;;17.25;100.00;101964.63;5326986;27;19919;-79
2022/09/11 08:08:11;;;;;;;;;;;;;;;17.58;100.00;101962.06;5326684;27;19968;-80
2022/09/11 08:10:42;;;;;;;;;;;;;;;17.94;100.00;101964.63;5333860;27;20351;-80
2022/09/11 08:13:13;;;;;;;;;;;;;;;18.17;100.00;101962.16;5328984;27;19926;-80
2022/09/11 08:15:46;;;;;;;;;;;;;;;18.64;100.00;101966.94;5325657;27;19920;-79
2022/09/11 08:21:18;;;;;;;;;;;;;;;19.88;100.00;101962.16;5326164;27;20076;-79
2022/09/11 08:23:49;;;;;;;;;;;;;;;20.61;100.00;101961.84;5325922;27;19942;-79
2022/09/11 08:26:22;;;;;;;;;;;;;;;21.42;100.00;101970.25;5330461;27;19925;-78
2022/09/11 08:28:55;;;;;;;;;;;;;;;21.92;100.00;101967.81;5319679;27;19924;-80
2022/09/11 08:31:26;;;;;;;;;;;;;;;22.15;100.00;101965.78;5327265;27;19931;-79
2022/09/11 08:33:58;;;;;;;;;;;;;;;21.87;100.00;101963.78;5322899;27;19924;-78
2022/09/11 08:36:29;;;;;;;;;;;;;;;21.96;100.00;101961.78;5323944;27;20124;-80
2022/09/11 08:39:02;;;;;;;;;;;;;;;22.31;100.00;101969.31;5319377;27;19920;-78
2022/09/11 08:41:36;;;;;;;;;;;;;;;22.42;100.00;101963.38;5319880;27;19920;-78
2022/09/11 08:44:07;;;;;;;;;;;;;;;22.65;100.00;101972.19;5323088;27;19924;-79
2022/09/11 08:46:41;;;;;;;;;;;;;;;23.16;100.00;101971.16;5323520;27;20338;-79
2022/09/11 08:49:23;;;;;;;;;;;;;;;24.05;100.00;101972.22;5319891;27;19920;-79
2022/09/11 08:52:00;;;;;;;;;;;;;;;25.18;100.00;101974.25;5325215;27;20356;-79
2022/09/11 08:54:32;;;;;;;;;;;;;;;26.77;100.00;101974.59;5320673;27;19922;-80
2022/09/11 08:57:09;;;;;;;;;;;;;;;27.78;100.00;101966.16;5324338;27;19959;-80
2022/09/11 08:59:49;;;;;;;;;;;;;;;28.98;100.00;101963.53;5320554;27;20596;-80
2022/09/11 09:02:40;;;;;;;;;;;;;;;29.88;100.00;101964.16;5321404;27;19931;-80
2022/09/11 09:05:13;;;;;;;;;;;;;;;30.54;100.00;101964.53;5334459;27;20045;-80
2022/09/11 09:07:47;;;;;;;;;;;;;;;31.21;100.00;101955.41;5322423;27;20384;-81
2022/09/11 09:10:30;;;;;;;;;;;;;;;31.66;100.00;101956.28;5322251;27;19924;-81
2022/09/11 09:13:19;;;;;;;;;;;;;;;32.32;100.00;101960.88;5322013;27;19924;-78
2022/09/11 09:15:57;;;;;;;;;;;;;;;32.20;100.00;101964.59;5322521;27;20428;-78
2022/09/11 09:18:43;;;;;;;;;;;;;;;32.61;100.00;101972.47;5356018;27;20280;-80
2022/09/11 09:21:20;;;;;;;;;;;;;;;33.38;100.00;101967.47;5343358;27;19922;-80
2022/09/11 09:23:53;;;;;;;;;;;;;;;33.26;100.00;101966.81;5327204;27;20257;-80
2022/09/11 09:26:29;;;;;;;;;;;;;;;33.28;100.00;101972.94;5328048;27;20351;-81
2022/09/11 09:29:04;;;;;;;;;;;;;;;33.94;100.00;101968.75;5319100;27;19921;-77
2022/09/11 09:31:37;;;;;;;;;;;;;;;34.50;100.00;101971.59;5323840;27;20474;-78
2022/09/11 09:34:23;;;;;;;;;;;;;;;33.88;100.00;101965.16;5323867;27;19963;-78
2022/09/11 09:37:25;;;;;;;;;;;;;;;33.85;94.62;101958.22;5326172;27;20291;-80
2022/09/11 09:39:56;;;;;;;;;;;;;;;34.18;100.00;101963.56;5302941;27;20339;-79
2022/09/11 09:42:27;;;;;;;;;;;;;;;32.59;100.00;101969.97;5320369;27;19923;-79
2022/09/11 09:45:00;;;;;;;;;;;;;;;31.26;100.00;101963.75;5320227;27;19920;-78
2022/09/11 09:47:31;;;;;;;;;;;;;;;30.84;100.00;101966.13;5341056;27;19920;-78
2022/09/11 09:50:03;;;;;;;;;;;;;;;31.13;100.00;101964.13;5326895;27;20403;-78
2022/09/11 09:52:34;;;;;;;;;;;;;;;31.07;100.00;101959.63;5326082;27;19920;-78
2022/09/11 09:55:12;;;;;;;;;;;;;;;30.36;100.00;101962.88;5334078;27;19926;-78
2022/09/11 09:57:44;;;;;;;;;;;;;;;29.75;100.00;101962.50;5329465;27;20112;-79
2022/09/11 10:00:18;;;;;;;;;;;;;;;31.23;100.00;101957.91;5326486;27;19998;-79
2022/09/11 10:02:55;;;;;;;;;;;;;;;31.59;100.00;101958.41;5321667;27;20283;-80
2022/09/11 10:05:28;;;;;;;;;;;;;;;30.40;100.00;101960.44;5324438;27;20380;-78
2022/09/11 10:08:00;;;;;;;;;;;;;;;29.49;100.00;101961.13;5322404;27;20281;-79
2022/09/11 10:10:35;;;;;;;;;;;;;;;28.84;100.00;101960.22;5324078;27;20018;-80
2022/09/11 10:13:17;;;;;;;;;;;;;;;28.36;100.00;101966.66;5322224;27;20018;-80
2022/09/11 10:15:49;;;;;;;;;;;;;;;29.09;100.00;101964.63;5328241;27;20372;-79
2022/09/11 10:18:35;;;;;;;;;;;;;;;30.99;100.00;101965.56;5325143;27;19926;-79
2022/09/11 10:21:12;;;;;;;;;;;;;;;33.29;100.00;101964.38;5323822;27;19920;-80
2022/09/11 10:23:51;;;;;;;;;;;;;;;35.25;98.11;101970.16;5322040;27;19923;-80
2022/09/11 10:26:23;;;;;;;;;;;;;;;37.02;76.93;101968.41;5322712;27;19955;-80
2022/09/11 10:28:58;;;;;;;;;;;;;;;38.44;57.29;101957.59;5324919;27;19993;-80
2022/09/11 10:31:30;;;;;;;;;;;;;;;39.83;59.04;101958.44;5336522;27;19927;-78
2022/09/11 10:34:03;;;;;;;;;;;;;;;41.23;54.39;101967.75;5320197;27;19920;-78
2022/09/11 10:36:34;;;;;;;;;;;;;;;41.98;35.57;101948.09;5318740;27;19928;-78
2022/09/11 10:39:15;;;;;;;;;;;;;;;42.35;41.75;101945.75;5324231;27;19926;-79
2022/09/11 10:41:48;;;;;;;;;;;;;;;42.59;31.48;101958.44;5329478;27;19916;-78
2022/09/11 10:44:21;;;;;;;;;;;;;;;42.70;41.22;101945.66;5325343;27;19924;-79
2022/09/11 10:47:03;;;;;;;;;;;;;;;43.17;39.48;101948.44;5321578;27;19916;-79
2022/09/11 10:49:34;;;;;;;;;;;;;;;43.46;31.85;101943.16;5322417;27;19920;-80
2022/09/11 10:52:08;;;;;;;;;;;;;;;43.01;33.17;101950.19;5319021;27;20022;-79
2022/09/11 10:54:58;;;;;;;;;;;;;;;42.02;36.29;101940.66;5327575;27;20419;-79
2022/09/11 10:57:39;;;;;;;;;;;;;;;41.64;34.65;101940.47;5329691;27;19959;-80
2022/09/11 11:00:21;;;;;;;;;;;;;;;40.05;39.17;101942.91;5320385;27;20130;-77
2022/09/11 11:02:54;;;;;;;;;;;;;;;37.68;39.72;101946.50;5317641;27;19938;-77
2022/09/11 11:05:30;;;;;;;;;;;;;;;36.41;42.87;101939.25;5328907;27;20325;-80
2022/09/11 11:08:13;;;;;;;;;;;;;;;34.92;52.41;101939.19;5326795;27;20018;-79
2022/09/11 11:10:55;;;;;;;;;;;;;;;33.08;63.45;101930.25;5326998;27;19931;-79
2022/09/11 11:13:49;;;;;;;;;;;;;;;30.86;74.18;101941.94;5326466;27;20014;-79
2022/09/11 11:16:32;;;;;;;;;;;;;;;28.90;100.00;101929.06;5325301;27;19988;-79
2022/09/11 11:19:06;;;;;;;;;;;;;;;27.57;100.00;101936.53;5313537;27;19924;-79
2022/09/11 11:21:47;;;;;;;;;;;;;;;26.89;100.00;101933.63;5317959;28;19919;-80
2022/09/11 11:24:45;;;;;;;;;;;;;;;26.44;100.00;101930.19;5324404;27;19916;-79
2022/09/11 11:27:43;;;;;;;;;;;;;;;26.10;100.00;101935.06;5302748;27;19916;-80
2022/09/11 11:30:19;;;;;;;;;;;;;;;28.25;100.00;101929.91;5315500;27;19951;-79
2022/09/11 11:33:02;;;;;;;;;;;;;;;32.01;100.00;101928.28;5321562;27;21431;-78
2022/09/11 11:35:43;;;;;;;;;;;;;;;35.37;69.69;101929.91;5320674;27;19925;-78
2022/09/11 11:38:33;;;;;;;;;;;;;;;37.57;77.13;101929.09;5320634;27;19981;-79
2022/09/11 11:41:25;;;;;;;;;;;;;;;38.56;57.22;101935.63;5321961;27;20710;-79
2022/09/11 11:43:57;;;;;;;;;;;;;;;40.64;41.47;101932.44;5321347;27;19978;-79
2022/09/11 11:46:34;;;;;;;;;;;;;;;40.63;33.92;101929.97;5324296;27;20007;-79
2022/09/11 11:49:09;;;;;;;;;;;;;;;40.59;35.56;101929.78;5321967;27;19924;-79
2022/09/11 11:51:59;;;;;;;;;;;;;;;41.44;35.76;101925.97;5323459;27;20482;-79
2022/09/11 11:54:40;;;;;;;;;;;;;;;42.91;32.69;101912.06;5320686;27;20281;-80
2022/09/11 11:57:19;;;;;;;;;;;;;;;44.04;31.61;101912.41;5334216;27;19916;-79
2022/09/11 11:59:56;;;;;;;;;;;;;;;43.91;30.18;101901.16;5319666;27;19966;-79
2022/09/11 12:02:51;;;;;;;;;;;;;;;44.20;33.10;101907.81;5321141;27;19967;-79
2022/09/11 12:05:30;;;;;;;;;;;;;;;43.68;30.75;101911.91;5319652;27;20020;-80
2022/09/11 12:08:01;;;;;;;;;;;;;;;40.73;33.12;101910.13;5324810;27;20339;-79
2022/09/11 12:10:37;;;;;;;;;;;;;;;38.12;36.15;101902.72;5321375;27;19920;-79
2022/09/11 12:13:15;;;;;;;;;;;;;;;36.75;56.00;101905.06;5320569;27;19928;-79
2022/09/11 12:16:16;;;;;;;;;;;;;;;38.11;48.75;101901.88;5318512;27;19923;-79
2022/09/11 12:19:06;;;;;;;;;;;;;;;40.39;40.83;101905.19;5308081;28;20466;-79
2022/09/11 12:21:39;;;;;;;;;;;;;;;40.89;39.03;101895.72;5328645;27;19920;-80
2022/09/11 12:24:11;;;;;;;;;;;;;;;41.28;35.59;101902.41;5318321;27;20300;-79
2022/09/11 12:26:42;;;;;;;;;;;;;;;42.31;31.51;101897.94;5322874;27;19924;-80
2022/09/11 12:29:14;;;;;;;;;;;;;;;43.23;30.63;101892.91;5334056;27;19942;-79
2022/09/11 12:31:48;;;;;;;;;;;;;;;43.86;26.98;101889.31;5326998;27;19926;-79
2022/09/11 12:34:25;;;;;;;;;;;;;;;44.57;25.02;101893.84;5334228;27;20403;-80
2022/09/11 12:36:59;;;;;;;;;;;;;;;45.17;31.56;101890.53;5334279;27;19916;-79
2022/09/11 12:39:57;;;;;;;;;;;;;;;45.56;27.52;101890.91;5325631;27;19997;-79
2022/09/11 12:42:28;;;;;;;;;;;;;;;46.14;27.73;101885.72;5336069;27;19916;-79
2022/09/11 12:45:00;;;;;;;;;;;;;;;46.21;26.14;101883.09;5327794;27;19977;-80
2022/09/11 12:47:36;;;;;;;;;;;;;;;45.82;24.09;101882.84;5323926;27;20295;-79
2022/09/11 12:50:16;;;;;;;;;;;;;;;45.18;23.67;101876.09;5313630;27;19920;-80
2022/09/11 12:52:50;;;;;;;;;;;;;;;42.10;27.33;101872.63;5316931;27;20707;-80
2022/09/11 12:55:28;;;;;;;;;;;;;;;39.02;30.69;101866.19;5314174;27;19919;-79
2022/09/11 12:58:04;;;;;;;;;;;;;;;36.87;34.59;101868.50;5323901;27;19943;-79
2022/09/11 13:00:35;;;;;;;;;;;;;;;38.23;34.13;101859.63;5317614;27;19959;-79
2022/09/11 13:03:15;;;;;;;;;;;;;;;39.36;32.21;101850.97;5322687;27;20041;-79
2022/09/11 13:05:57;;;;;;;;;;;;;;;39.17;29.98;101851.09;5322785;27;19935;-79
2022/09/11 13:08:33;;;;;;;;;;;;;;;35.60;36.64;101858.22;5323617;27;19972;-79
2022/09/11 13:11:24;;;;;;;;;;;;;;;36.31;38.65;101848.53;5325902;27;19919;-80